Time;durP1;ratioP1;P1;durP2;ratioP2;P2;SDS_P1;SDS_P2;PMS_P1;PMS_P2;Temp;Humidity;BMP_temperature;BMP_pressure;BME280_temperature;BME280_humidity;BME280_pressure;Samples;Min_cycle;Max_cycle;Signal;HPM_P1;HPM_P2
2022/11/30 00:00:33;;;;;;;1.67;1.20;;;7.70;98.20;;;;;;4970559;28;20602;-80
2022/11/30 00:03:00;;;;;;;1.60;1.20;;;7.70;98.20;;;;;;4981179;28;20548;-79
2022/11/30 00:05:27;;;;;;;1.60;1.20;;;7.70;98.20;;;;;;4967898;28;20473;-79
2022/11/30 00:07:53;;;;;;;1.60;1.20;;;7.70;98.20;;;;;;4990836;28;20987;-79
2022/11/30 00:10:20;;;;;;;1.63;1.20;;;7.70;98.20;;;;;;4988938;28;20461;-79
2022/11/30 00:12:47;;;;;;;1.67;1.30;;;7.70;98.20;;;;;;4978382;28;20489;-80
2022/11/30 00:15:16;;;;;;;1.67;1.30;;;7.70;98.20;;;;;;4969264;28;20458;-79
2022/11/30 00:17:44;;;;;;;1.70;1.30;;;7.70;98.20;;;;;;4975425;28;20481;-78
2022/11/30 00:20:12;;;;;;;1.60;1.20;;;7.70;98.20;;;;;;4973556;28;20469;-78
2022/11/30 00:22:39;;;;;;;1.60;1.20;;;7.70;98.20;;;;;;4983235;28;20488;-78
2022/11/30 00:25:06;;;;;;;1.70;1.30;;;7.70;98.20;;;;;;4973747;28;20966;-78
2022/11/30 00:27:34;;;;;;;1.67;1.30;;;7.70;98.20;;;;;;4975281;28;20496;-78
2022/11/30 00:30:01;;;;;;;1.67;1.23;;;7.70;98.20;;;;;;4974709;28;20468;-78
2022/11/30 00:32:28;;;;;;;1.70;1.57;;;7.70;98.20;;;;;;4988222;28;20494;-78
2022/11/30 00:34:56;;;;;;;1.70;1.20;;;7.80;98.20;;;;;;4976996;28;20736;-78
2022/11/30 00:37:23;;;;;;;1.60;1.20;;;7.80;98.20;;;;;;4972726;28;20480;-78
2022/11/30 00:39:50;;;;;;;1.70;1.30;;;7.80;98.20;;;;;;4972471;28;20461;-78
2022/11/30 00:42:17;;;;;;;1.67;1.20;;;7.80;98.20;;;;;;4974872;28;20481;-79
2022/11/30 00:44:43;;;;;;;1.60;1.20;;;7.80;98.20;;;;;;4977169;28;20970;-80
2022/11/30 00:47:10;;;;;;;1.60;1.20;;;7.80;98.20;;;;;;4975380;28;20488;-79
2022/11/30 00:49:37;;;;;;;1.63;1.30;;;7.80;98.20;;;;;;4979903;28;20465;-81
2022/11/30 00:52:05;;;;;;;1.60;1.30;;;7.80;98.20;;;;;;4985239;28;20515;-80
2022/11/30 00:54:32;;;;;;;1.63;1.30;;;7.80;98.20;;;;;;4985839;28;20466;-79
2022/11/30 00:56:59;;;;;;;1.60;1.20;;;7.70;98.20;;;;;;4973299;28;20481;-81
2022/11/30 00:59:26;;;;;;;1.60;1.20;;;7.70;98.20;;;;;;4981080;28;21003;-79
2022/11/30 01:01:53;;;;;;;1.60;1.20;;;7.70;98.20;;;;;;4982222;28;21004;-79
2022/11/30 01:04:20;;;;;;;1.60;1.20;;;7.70;98.20;;;;;;5002160;28;20460;-82
2022/11/30 01:06:47;;;;;;;1.63;1.30;;;7.70;98.20;;;;;;4981124;28;20480;-83
2022/11/30 01:09:15;;;;;;;1.60;1.20;;;7.70;98.20;;;;;;5004586;28;20469;-83
2022/11/30 01:11:42;;;;;;;1.70;1.40;;;7.70;98.20;;;;;;4986922;28;21067;-83
2022/11/30 01:14:08;;;;;;;1.67;1.30;;;7.70;98.20;;;;;;4984160;28;20990;-81
2022/11/30 01:16:35;;;;;;;1.60;1.20;;;7.70;98.20;;;;;;4976919;28;20494;-79
2022/11/30 01:19:02;;;;;;;1.60;1.20;;;7.70;98.20;;;;;;5004658;28;20472;-80
2022/11/30 01:21:29;;;;;;;1.70;1.50;;;7.70;98.20;;;;;;4992599;28;20480;-81
2022/11/30 01:23:56;;;;;;;1.60;1.23;;;7.70;98.20;;;;;;4988914;28;20466;-81
2022/11/30 01:26:25;;;;;;;1.63;1.27;;;7.70;98.20;;;;;;4971262;28;20485;-82
2022/11/30 01:28:52;;;;;;;1.60;1.20;;;7.80;98.20;;;;;;4988522;28;20485;-81
2022/11/30 01:31:20;;;;;;;1.63;1.23;;;7.80;98.20;;;;;;4975739;28;20472;-81
2022/11/30 01:33:49;;;;;;;1.70;1.30;;;7.80;98.20;;;;;;4993988;28;20468;-81
2022/11/30 01:36:18;;;;;;;1.60;1.23;;;7.80;98.20;;;;;;4968608;28;20484;-82
2022/11/30 01:38:47;;;;;;;1.60;1.20;;;7.80;98.20;;;;;;5003042;28;20468;-81
2022/11/30 01:41:17;;;;;;;1.63;1.27;;;7.80;98.20;;;;;;4982516;28;20476;-81
2022/11/30 01:43:47;;;;;;;1.60;1.30;;;7.80;98.20;;;;;;4982755;28;20470;-81
2022/11/30 01:46:34;;;;;;;1.60;1.20;;;7.80;98.20;;;;;;4964501;28;20481;-80
2022/11/30 01:49:05;;;;;;;1.60;1.20;;;7.80;98.20;;;;;;4981791;28;20480;-80
2022/11/30 01:51:36;;;;;;;1.60;1.30;;;7.80;98.20;;;;;;4973152;28;20491;-80
2022/11/30 01:54:04;;;;;;;1.70;1.30;;;7.80;98.20;;;;;;5000680;28;20957;-81
2022/11/30 01:56:31;;;;;;;1.67;1.40;;;7.80;98.20;;;;;;4965505;28;20504;-80
2022/11/30 01:59:00;;;;;;;1.60;1.20;;;7.80;98.20;;;;;;4971800;28;20469;-80
2022/11/30 02:01:27;;;;;;;1.63;1.30;;;7.80;98.20;;;;;;4957799;28;20838;-80
2022/11/30 02:03:59;;;;;;;1.60;1.20;;;7.80;98.20;;;;;;5001362;28;20480;-80
2022/11/30 02:06:26;;;;;;;1.60;1.30;;;7.80;98.20;;;;;;4971046;28;20483;-80
2022/11/30 02:08:54;;;;;;;1.67;1.30;;;7.80;98.20;;;;;;5001024;28;20464;-80
2022/11/30 02:11:21;;;;;;;1.70;1.20;;;7.80;98.20;;;;;;4981721;28;20843;-80
2022/11/30 02:14:05;;;;;;;2.23;2.00;;;7.80;98.20;;;;;;4981962;28;20846;-80
2022/11/30 02:16:40;;;;;;;1.70;1.30;;;7.80;98.20;;;;;;4965426;28;20485;-80
2022/11/30 02:19:28;;;;;;;1.60;1.20;;;7.80;98.20;;;;;;4979108;28;20465;-80
2022/11/30 02:22:01;;;;;;;1.67;1.20;;;7.80;98.20;;;;;;4975571;28;20484;-79
2022/11/30 02:24:44;;;;;;;1.60;1.20;;;7.80;98.20;;;;;;4975875;28;20454;-80
2022/11/30 02:27:23;;;;;;;1.60;1.10;;;7.80;98.20;;;;;;4970609;28;21111;-80
2022/11/30 02:29:55;;;;;;;1.67;1.20;;;7.80;98.20;;;;;;4974054;28;20461;-80
2022/11/30 02:32:27;;;;;;;1.63;1.30;;;7.80;98.20;;;;;;4965106;28;20481;-80
2022/11/30 02:34:56;;;;;;;1.70;1.30;;;7.80;98.20;;;;;;4970969;28;20470;-80
2022/11/30 02:37:24;;;;;;;1.63;1.30;;;7.90;98.20;;;;;;4971589;28;20777;-80
2022/11/30 02:39:51;;;;;;;1.60;1.20;;;7.90;98.20;;;;;;4970584;28;20462;-79
2022/11/30 02:42:18;;;;;;;1.60;1.20;;;7.90;98.20;;;;;;4971795;28;20555;-79
2022/11/30 02:44:47;;;;;;;1.60;1.20;;;7.90;98.20;;;;;;4972385;28;20461;-80
2022/11/30 02:47:22;;;;;;;1.67;1.30;;;7.90;98.20;;;;;;4972060;28;20489;-79
2022/11/30 02:49:53;;;;;;;1.60;1.20;;;7.90;98.20;;;;;;4974327;28;20450;-79
2022/11/30 02:52:24;;;;;;;1.60;1.20;;;7.90;98.20;;;;;;4984559;28;20993;-79
2022/11/30 02:54:52;;;;;;;1.60;1.20;;;7.90;98.20;;;;;;4975921;28;20893;-80
2022/11/30 02:57:19;;;;;;;1.70;1.30;;;7.90;98.20;;;;;;4971664;28;20485;-79
2022/11/30 02:59:46;;;;;;;1.60;1.20;;;7.90;98.20;;;;;;4974139;28;20462;-79
2022/11/30 03:02:13;;;;;;;1.60;1.30;;;7.90;98.20;;;;;;4977206;28;20510;-79
2022/11/30 03:04:41;;;;;;;1.60;1.20;;;7.90;98.20;;;;;;4974793;28;20462;-79
2022/11/30 03:07:07;;;;;;;1.60;1.20;;;7.90;98.20;;;;;;4979836;28;20873;-79
2022/11/30 03:09:34;;;;;;;1.63;1.23;;;7.90;98.20;;;;;;4980640;28;20993;-79
2022/11/30 03:12:01;;;;;;;1.70;1.37;;;7.90;98.20;;;;;;4970951;28;20481;-79
2022/11/30 03:14:28;;;;;;;1.60;1.30;;;7.90;98.20;;;;;;4976230;28;20462;-79
2022/11/30 03:16:54;;;;;;;3.70;2.20;;;7.90;98.20;;;;;;4966729;28;20493;-79
2022/11/30 03:19:21;;;;;;;1.67;1.30;;;7.90;98.20;;;;;;4977282;28;20500;-79
2022/11/30 03:21:49;;;;;;;1.60;1.20;;;7.90;98.20;;;;;;4975560;28;20595;-80
2022/11/30 03:24:16;;;;;;;1.73;1.47;;;7.90;98.20;;;;;;4984434;28;20462;-79
2022/11/30 03:26:43;;;;;;;1.60;1.23;;;7.90;98.20;;;;;;4966990;28;20882;-79
2022/11/30 03:29:10;;;;;;;1.60;1.20;;;7.90;98.20;;;;;;4978169;28;20470;-78
2022/11/30 03:31:36;;;;;;;1.73;1.50;;;7.90;98.20;;;;;;4972163;28;20494;-78
2022/11/30 03:34:03;;;;;;;1.67;1.30;;;7.90;98.20;;;;;;4998649;28;20475;-79
2022/11/30 03:36:30;;;;;;;1.60;1.20;;;7.90;98.20;;;;;;4965359;28;20485;-79
2022/11/30 03:38:58;;;;;;;1.70;1.40;;;7.90;98.20;;;;;;4979909;28;20490;-78
2022/11/30 03:41:25;;;;;;;1.90;1.50;;;7.90;98.20;;;;;;4965465;28;20931;-79
2022/11/30 03:43:52;;;;;;;1.67;1.30;;;7.90;98.20;;;;;;4983897;28;20464;-79
2022/11/30 03:46:19;;;;;;;1.63;1.20;;;7.90;98.20;;;;;;4965964;28;20495;-79
2022/11/30 03:48:46;;;;;;;1.60;1.20;;;7.90;98.20;;;;;;5000795;28;20517;-79
2022/11/30 03:51:13;;;;;;;1.70;1.60;;;7.90;98.20;;;;;;4983776;28;20859;-80
2022/11/30 03:53:41;;;;;;;1.67;1.30;;;7.90;98.20;;;;;;4998440;28;20461;-79
2022/11/30 03:56:10;;;;;;;1.60;1.20;;;7.90;98.20;;;;;;4964792;28;21029;-79
2022/11/30 03:58:38;;;;;;;1.70;1.30;;;7.90;98.20;;;;;;4982264;28;20873;-79
2022/11/30 04:01:08;;;;;;;1.70;1.30;;;7.90;98.20;;;;;;4968787;28;20472;-80
2022/11/30 04:03:35;;;;;;;1.60;1.20;;;7.90;98.20;;;;;;5007192;28;20476;-79
2022/11/30 04:06:03;;;;;;;1.70;1.30;;;7.90;98.20;;;;;;4969860;28;20496;-79
2022/11/30 04:08:30;;;;;;;1.63;1.20;;;7.90;98.20;;;;;;4988053;28;20462;-79
2022/11/30 04:10:58;;;;;;;1.63;1.20;;;8.00;98.20;;;;;;4966407;28;20888;-79
2022/11/30 04:13:28;;;;;;;1.70;1.30;;;7.90;98.20;;;;;;4983508;28;20454;-79
2022/11/30 04:15:55;;;;;;;1.60;1.20;;;7.90;98.20;;;;;;4963637;28;20489;-79
2022/11/30 04:18:23;;;;;;;1.60;1.20;;;7.90;98.20;;;;;;4987688;28;20485;-79
2022/11/30 04:20:51;;;;;;;1.70;1.50;;;7.90;98.20;;;;;;4963848;28;20473;-79
2022/11/30 04:23:18;;;;;;;1.67;1.30;;;8.00;98.20;;;;;;5007015;28;20888;-80
2022/11/30 04:25:44;;;;;;;1.60;1.30;;;8.00;98.20;;;;;;4979439;28;20485;-79
2022/11/30 04:28:11;;;;;;;1.60;1.20;;;7.90;98.20;;;;;;4996687;28;20992;-79
2022/11/30 04:30:39;;;;;;;1.60;1.20;;;7.90;98.20;;;;;;4993071;28;20464;-79
2022/11/30 04:33:06;;;;;;;1.60;1.20;;;7.90;98.20;;;;;;4977660;28;20481;-79
2022/11/30 04:35:33;;;;;;;1.60;1.20;;;7.90;98.20;;;;;;4972520;28;20462;-79
2022/11/30 04:38:00;;;;;;;1.60;1.20;;;7.90;98.20;;;;;;4981439;28;20489;-79
2022/11/30 04:40:27;;;;;;;1.60;1.20;;;7.90;98.20;;;;;;4973641;28;20469;-79
2022/11/30 04:42:54;;;;;;;1.60;1.30;;;7.90;98.20;;;;;;4979265;28;20504;-79
2022/11/30 04:45:21;;;;;;;1.63;1.30;;;7.90;98.20;;;;;;4971875;28;20474;-81
2022/11/30 04:47:49;;;;;;;1.67;1.20;;;7.90;98.20;;;;;;4976197;28;21023;-79
2022/11/30 04:50:16;;;;;;;1.63;1.20;;;7.90;98.20;;;;;;4998852;23;20497;-76
2022/11/30 04:52:42;;;;;;;1.60;1.20;;;7.90;98.20;;;;;;4982038;28;20556;-76
2022/11/30 04:55:09;;;;;;;1.60;1.20;;;7.80;98.20;;;;;;4989912;28;20487;-76
2022/11/30 04:57:36;;;;;;;1.60;1.20;;;7.80;98.20;;;;;;4981425;28;20488;-76
2022/11/30 05:00:19;;;;;;;1.60;1.20;;;7.80;98.20;;;;;;4990441;28;20476;-76
2022/11/30 05:02:46;;;;;;;1.60;1.20;;;7.80;98.20;;;;;;4980692;28;20488;-76
2022/11/30 05:05:14;;;;;;;1.60;1.23;;;7.70;98.20;;;;;;4986644;28;20489;-76
2022/11/30 05:07:40;;;;;;;1.60;1.20;;;7.70;98.20;;;;;;4981658;28;20490;-76
2022/11/30 05:10:09;;;;;;;1.60;1.30;;;7.70;98.20;;;;;;4988549;28;20511;-75
2022/11/30 05:12:36;;;;;;;1.60;1.20;;;7.70;98.20;;;;;;4973980;28;20982;-77
2022/11/30 05:15:03;;;;;;;1.70;1.30;;;7.70;98.20;;;;;;4989628;28;20456;-76
2022/11/30 05:17:29;;;;;;;1.63;1.30;;;7.70;98.20;;;;;;4983377;28;20480;-76
2022/11/30 05:19:56;;;;;;;1.60;1.20;;;7.70;98.20;;;;;;4993459;28;20484;-76
2022/11/30 05:22:24;;;;;;;1.70;1.20;;;7.70;98.20;;;;;;4970894;28;20481;-77
2022/11/30 05:24:51;;;;;;;1.60;1.20;;;7.70;98.20;;;;;;4987439;28;20521;-76
2022/11/30 05:27:18;;;;;;;1.60;1.20;;;7.70;98.20;;;;;;4981692;28;21148;-76
2022/11/30 05:29:44;;;;;;;1.60;1.20;;;7.70;98.20;;;;;;4987909;28;20485;-75
2022/11/30 05:32:11;;;;;;;1.60;1.20;;;7.70;98.20;;;;;;4974456;28;20521;-76
2022/11/30 05:34:38;;;;;;;1.67;1.30;;;7.70;98.20;;;;;;4984066;28;20465;-75
2022/11/30 05:37:05;;;;;;;1.67;1.20;;;7.70;98.20;;;;;;4980679;28;21032;-76
2022/11/30 05:39:33;;;;;;;1.67;1.27;;;7.70;98.20;;;;;;4989481;28;21060;-75
2022/11/30 05:41:59;;;;;;;1.60;1.30;;;7.70;98.20;;;;;;4974418;28;20587;-76
2022/11/30 05:44:26;;;;;;;1.70;1.37;;;7.60;98.20;;;;;;4983000;28;20727;-76
2022/11/30 05:46:53;;;;;;;2.20;2.00;;;7.60;98.20;;;;;;4975202;28;20478;-76
2022/11/30 05:49:20;;;;;;;1.70;1.30;;;7.60;98.20;;;;;;4986933;28;20484;-77
2022/11/30 05:51:47;;;;;;;1.60;1.30;;;7.60;98.20;;;;;;4977625;28;20659;-76
2022/11/30 05:54:15;;;;;;;1.60;1.20;;;7.50;98.20;;;;;;4988382;28;20475;-76
2022/11/30 05:56:43;;;;;;;1.60;1.10;;;7.50;98.20;;;;;;4981345;28;20485;-75
2022/11/30 05:59:10;;;;;;;1.60;1.30;;;7.50;98.20;;;;;;4990335;28;20497;-75
2022/11/30 06:01:37;;;;;;;1.60;1.20;;;7.50;98.20;;;;;;4975688;28;20502;-76
2022/11/30 06:04:06;;;;;;;1.70;1.33;;;7.40;98.20;;;;;;4977922;28;20840;-77
2022/11/30 06:06:33;;;;;;;1.63;1.20;;;7.40;98.20;;;;;;4978352;28;20485;-77
2022/11/30 06:09:00;;;;;;;1.60;1.20;;;7.40;98.20;;;;;;4989573;28;20473;-75
2022/11/30 06:11:27;;;;;;;1.63;1.20;;;7.40;98.20;;;;;;4979471;28;21073;-76
2022/11/30 06:13:55;;;;;;;1.70;1.40;;;7.40;98.20;;;;;;4982000;28;20857;-76
2022/11/30 06:16:21;;;;;;;1.63;1.20;;;7.40;98.20;;;;;;4978706;28;21084;-76
2022/11/30 06:18:51;;;;;;;1.63;1.30;;;7.40;98.20;;;;;;4987352;28;20516;-76
2022/11/30 06:21:18;;;;;;;1.60;1.23;;;7.40;98.20;;;;;;4976023;28;20496;-76
2022/11/30 06:23:44;;;;;;;1.60;1.20;;;7.40;98.20;;;;;;4973875;28;20496;-75
2022/11/30 06:26:12;;;;;;;1.60;1.23;;;7.40;98.20;;;;;;4977325;28;20638;-75
2022/11/30 06:28:39;;;;;;;1.60;1.20;;;7.40;98.20;;;;;;4986206;28;20461;-76
2022/11/30 06:31:08;;;;;;;1.63;1.30;;;7.40;98.20;;;;;;4976458;28;20473;-75
2022/11/30 06:33:35;;;;;;;1.63;1.20;;;7.30;98.20;;;;;;4989825;28;20465;-76
2022/11/30 06:36:07;;;;;;;1.63;1.20;;;7.30;98.20;;;;;;4980101;28;20831;-76
2022/11/30 06:38:34;;;;;;;1.60;1.20;;;7.30;98.20;;;;;;4991793;28;20492;-77
2022/11/30 06:41:05;;;;;;;1.60;1.20;;;7.30;98.20;;;;;;4979016;28;20481;-77
2022/11/30 06:43:36;;;;;;;1.63;1.20;;;7.20;98.20;;;;;;4980480;28;20468;-76
2022/11/30 06:46:03;;;;;;;1.63;1.30;;;7.20;98.20;;;;;;4979223;28;20467;-77
2022/11/30 06:48:34;;;;;;;1.70;1.30;;;7.10;98.20;;;;;;5001550;28;20611;-77
2022/11/30 06:51:01;;;;;;;1.70;1.40;;;7.10;98.20;;;;;;4979104;28;21008;-77
2022/11/30 06:53:28;;;;;;;1.70;1.30;;;7.10;98.20;;;;;;4989436;28;20468;-76
2022/11/30 06:55:54;;;;;;;1.70;1.40;;;7.00;98.20;;;;;;4978852;28;20978;-76
2022/11/30 06:58:21;;;;;;;1.70;1.40;;;7.00;98.20;;;;;;4989008;28;21001;-76
2022/11/30 07:00:48;;;;;;;1.70;1.30;;;6.90;98.20;;;;;;4988420;28;20512;-76
2022/11/30 07:03:15;;;;;;;1.60;1.30;;;6.90;98.20;;;;;;4977675;28;20470;-76
2022/11/30 07:05:45;;;;;;;1.70;1.33;;;6.90;98.20;;;;;;4988202;28;20922;-76
2022/11/30 07:08:17;;;;;;;1.63;1.20;;;6.90;98.20;;;;;;4980439;28;20486;-77
2022/11/30 07:10:45;;;;;;;1.70;1.60;;;6.90;98.20;;;;;;4987227;28;20484;-76
2022/11/30 07:13:13;;;;;;;1.63;1.30;;;6.90;98.20;;;;;;4970099;28;20486;-77
2022/11/30 07:15:40;;;;;;;1.63;1.30;;;6.90;98.20;;;;;;4988038;28;20469;-76
2022/11/30 07:18:08;;;;;;;1.67;1.40;;;6.80;98.20;;;;;;4968453;28;20993;-77
2022/11/30 07:20:35;;;;;;;1.60;1.20;;;6.80;98.20;;;;;;4988296;28;20555;-77
2022/11/30 07:28:30;;;;;;;1.70;1.40;;;6.80;98.20;;;;;;4973521;28;21036;-77
2022/11/30 07:30:57;;;;;;;1.60;1.30;;;6.80;98.20;;;;;;4978648;28;20487;-76
2022/11/30 07:33:24;;;;;;;1.63;1.30;;;6.80;98.20;;;;;;4984215;28;20469;-76
2022/11/30 07:35:52;;;;;;;1.67;1.27;;;6.80;98.20;;;;;;4978667;28;20468;-75
2022/11/30 07:38:21;;;;;;;1.63;1.30;;;6.80;98.20;;;;;;4998532;28;20494;-76
2022/11/30 07:40:47;;;;;;;1.60;1.23;;;6.80;98.20;;;;;;4989015;28;20485;-75
2022/11/30 07:43:14;;;;;;;1.70;1.47;;;6.90;98.20;;;;;;4980175;28;20477;-75
2022/11/30 07:45:41;;;;;;;1.67;1.40;;;6.90;98.20;;;;;;4987128;28;20496;-75
2022/11/30 07:48:09;;;;;;;2.90;2.70;;;6.90;98.20;;;;;;4977032;28;20543;-76
2022/11/30 07:50:36;;;;;;;1.63;1.27;;;6.90;98.20;;;;;;4987623;28;20567;-75
2022/11/30 07:53:45;;;;;;;1.63;1.20;;;6.90;98.20;;;;;;4977735;28;20511;-76
2022/11/30 07:56:14;;;;;;;1.60;1.30;;;6.90;98.20;;;;;;4965978;28;20562;-75
2022/11/30 07:58:41;;;;;;;1.70;1.37;;;6.90;98.20;;;;;;4988147;28;20496;-75
2022/11/30 08:01:11;;;;;;;1.60;1.20;;;6.90;98.20;;;;;;4976092;28;20509;-75
2022/11/30 08:03:38;;;;;;;1.60;1.20;;;6.90;98.20;;;;;;4982663;28;20457;-76
2022/11/30 08:06:07;;;;;;;1.60;1.20;;;6.90;98.20;;;;;;4975978;28;20468;-76
2022/11/30 08:11:11;;;;;;;1.70;1.40;;;7.00;98.20;;;;;;5058303;23;20522;-76
2022/11/30 08:13:38;;;;;;;1.70;1.30;;;7.00;98.20;;;;;;5003970;28;20472;-77
2022/11/30 08:16:07;;;;;;;1.60;1.30;;;7.00;98.20;;;;;;4982692;28;20465;-77
2022/11/30 08:18:34;;;;;;;1.70;1.40;;;7.00;98.20;;;;;;5001257;28;20507;-75
2022/11/30 08:21:04;;;;;;;1.90;1.70;;;7.00;98.20;;;;;;4979557;28;20487;-76
2022/11/30 08:23:31;;;;;;;1.60;1.30;;;7.10;98.20;;;;;;4992862;28;20465;-75
2022/11/30 08:26:05;;;;;;;1.70;1.30;;;7.10;98.20;;;;;;4979105;28;20472;-77
2022/11/30 08:28:32;;;;;;;1.60;1.20;;;7.10;98.20;;;;;;5001557;28;20511;-76
2022/11/30 08:30:59;;;;;;;1.63;1.20;;;7.10;98.20;;;;;;4981812;28;20485;-76
2022/11/30 08:33:26;;;;;;;1.67;1.30;;;7.10;98.20;;;;;;5003085;28;20461;-76
2022/11/30 08:35:54;;;;;;;1.63;1.23;;;7.10;98.20;;;;;;4978042;28;20465;-76
2022/11/30 08:38:21;;;;;;;1.60;1.30;;;7.10;98.20;;;;;;5005513;28;20488;-76
2022/11/30 08:40:47;;;;;;;1.63;1.30;;;7.10;98.20;;;;;;4987692;28;20497;-77
2022/11/30 08:43:16;;;;;;;1.63;1.27;;;7.10;98.20;;;;;;5005585;28;20524;-76
2022/11/30 08:45:42;;;;;;;1.67;1.30;;;7.10;98.20;;;;;;4990817;28;20488;-76
2022/11/30 08:48:09;;;;;;;1.60;1.30;;;7.10;98.20;;;;;;4995269;28;20501;-76
2022/11/30 08:50:36;;;;;;;1.67;1.30;;;7.10;98.20;;;;;;4991303;28;20964;-76
2022/11/30 08:53:03;;;;;;;1.60;1.20;;;7.10;98.20;;;;;;4987341;28;20483;-76
2022/11/30 08:55:29;;;;;;;1.60;1.27;;;7.20;98.20;;;;;;4988888;28;20468;-77
2022/11/30 08:57:56;;;;;;;1.60;1.20;;;7.10;98.20;;;;;;4982646;28;20481;-76
2022/11/30 09:00:24;;;;;;;2.17;1.77;;;7.10;98.20;;;;;;4991424;28;20489;-75
2022/11/30 09:02:51;;;;;;;1.70;1.30;;;7.10;98.20;;;;;;4985096;28;20488;-76
2022/11/30 09:05:18;;;;;;;1.67;1.30;;;7.10;98.20;;;;;;4990391;28;20465;-77
2022/11/30 09:07:44;;;;;;;1.60;1.20;;;7.10;98.20;;;;;;4995665;28;20574;-77
2022/11/30 09:10:12;;;;;;;2.73;2.53;;;7.10;98.20;;;;;;4991082;28;21083;-77
2022/11/30 09:12:40;;;;;;;1.60;1.20;;;7.10;98.20;;;;;;4985710;28;20581;-78
2022/11/30 09:15:08;;;;;;;1.60;1.20;;;7.10;98.20;;;;;;4989654;28;20472;-76
2022/11/30 09:17:36;;;;;;;1.60;1.30;;;7.10;98.20;;;;;;4996104;28;20593;-76
2022/11/30 09:20:04;;;;;;;1.60;1.30;;;7.20;98.20;;;;;;4992148;28;20497;-76
2022/11/30 09:22:31;;;;;;;1.60;1.20;;;7.20;98.20;;;;;;4988127;28;21044;-76
2022/11/30 09:24:57;;;;;;;1.67;1.20;;;7.20;98.20;;;;;;4991875;28;20472;-76
2022/11/30 09:27:29;;;;;;;1.70;1.40;;;7.20;98.20;;;;;;4992006;28;20506;-77
2022/11/30 09:29:55;;;;;;;1.60;1.20;;;7.20;98.20;;;;;;4990539;28;20477;-76
2022/11/30 09:32:22;;;;;;;1.60;1.20;;;7.20;98.20;;;;;;4996329;28;20487;-77
2022/11/30 09:34:50;;;;;;;1.60;1.20;;;7.30;98.20;;;;;;4990459;28;20464;-77
2022/11/30 09:37:17;;;;;;;1.70;1.30;;;7.30;98.20;;;;;;4994472;28;20527;-77
2022/11/30 09:39:44;;;;;;;1.60;1.20;;;7.30;98.20;;;;;;4994768;28;20496;-77
2022/11/30 09:42:43;;;;;;;1.60;1.27;;;7.30;98.20;;;;;;4984429;28;20502;-78
2022/11/30 09:45:16;;;;;;;1.60;1.20;;;7.30;98.20;;;;;;4990587;28;20521;-78
2022/11/30 09:48:10;;;;;;;1.67;1.30;;;7.30;98.20;;;;;;4982351;28;20484;-76
2022/11/30 09:50:42;;;;;;;1.63;1.30;;;7.30;98.20;;;;;;4989714;28;20484;-77
2022/11/30 09:53:15;;;;;;;1.70;1.30;;;7.30;98.20;;;;;;4988308;28;20488;-75
2022/11/30 09:55:44;;;;;;;1.60;1.20;;;7.30;98.20;;;;;;4989831;28;20465;-75
2022/11/30 09:58:19;;;;;;;2.10;1.90;;;7.30;98.20;;;;;;4987689;28;21065;-76
2022/11/30 10:00:46;;;;;;;1.63;1.27;;;7.30;98.20;;;;;;4988003;28;20496;-76
2022/11/30 10:03:13;;;;;;;1.60;1.20;;;7.30;98.20;;;;;;5005550;28;20823;-75
2022/11/30 10:05:47;;;;;;;1.60;1.30;;;7.30;98.20;;;;;;4988273;28;20548;-76
2022/11/30 10:08:36;;;;;;;1.60;1.20;;;7.30;98.20;;;;;;4978886;28;20496;-74
2022/11/30 10:11:16;;;;;;;1.60;1.30;;;7.30;98.20;;;;;;4982830;28;20926;-74
2022/11/30 10:13:57;;;;;;;1.63;1.20;;;7.30;98.20;;;;;;4988858;28;20909;-74
2022/11/30 10:16:34;;;;;;;1.60;1.20;;;7.40;98.20;;;;;;4986642;28;20483;-74
2022/11/30 10:19:05;;;;;;;1.63;1.20;;;7.40;98.20;;;;;;4996485;28;20584;-75
2022/11/30 10:21:51;;;;;;;1.60;1.30;;;7.40;98.20;;;;;;4982739;28;20810;-75
2022/11/30 10:24:35;;;;;;;1.60;1.20;;;7.40;98.20;;;;;;4992007;28;20464;-75
2022/11/30 10:27:12;;;;;;;1.70;1.30;;;7.40;98.20;;;;;;4980174;28;21020;-75
2022/11/30 10:29:42;;;;;;;1.63;1.20;;;7.50;98.20;;;;;;4987787;28;21110;-74
2022/11/30 10:32:17;;;;;;;1.87;1.67;;;7.50;98.20;;;;;;4980236;28;20481;-75
2022/11/30 10:34:45;;;;;;;1.60;1.20;;;7.50;98.20;;;;;;4988127;28;20456;-75
2022/11/30 10:37:20;;;;;;;1.60;1.30;;;7.50;98.20;;;;;;4990001;28;20486;-75
2022/11/30 10:39:57;;;;;;;1.60;1.30;;;7.50;98.20;;;;;;4993518;28;20494;-75
2022/11/30 10:42:29;;;;;;;1.70;1.30;;;7.50;98.20;;;;;;4991070;28;20483;-75
2022/11/30 10:45:00;;;;;;;1.60;1.20;;;7.50;98.20;;;;;;4990000;28;20833;-75
2022/11/30 10:47:32;;;;;;;1.63;1.20;;;7.50;98.20;;;;;;4981985;28;20579;-75
2022/11/30 10:49:59;;;;;;;1.60;1.30;;;7.50;98.20;;;;;;5002138;22;20484;-79
2022/11/30 10:52:32;;;;;;;2.60;2.40;;;7.50;98.20;;;;;;4979013;28;20544;-78
2022/11/30 10:55:00;;;;;;;1.60;1.20;;;7.60;98.20;;;;;;4974022;28;20552;-78
2022/11/30 10:57:31;;;;;;;3.10;2.90;;;7.60;98.20;;;;;;4980014;28;20508;-77
2022/11/30 11:00:02;;;;;;;1.60;1.20;;;7.60;98.20;;;;;;4967342;28;20494;-78
2022/11/30 11:02:38;;;;;;;1.60;1.20;;;7.60;98.20;;;;;;4943851;28;20494;-78
2022/11/30 11:05:20;;;;;;;1.60;1.20;;;7.60;98.20;;;;;;4953947;28;20462;-77
2022/11/30 11:07:56;;;;;;;1.67;1.20;;;7.60;98.20;;;;;;4965695;28;20482;-78
2022/11/30 11:10:31;;;;;;;1.67;1.20;;;7.60;98.20;;;;;;4949585;28;20821;-79
2022/11/30 11:12:58;;;;;;;2.03;1.83;;;7.60;98.20;;;;;;4940422;28;20489;-78
2022/11/30 11:15:26;;;;;;;1.60;1.20;;;7.60;98.20;;;;;;4956677;28;20496;-78
2022/11/30 11:18:11;;;;;;;1.60;1.20;;;7.60;98.20;;;;;;4958158;28;20486;-78
2022/11/30 11:20:41;;;;;;;1.60;1.20;;;7.60;98.20;;;;;;4948000;28;20490;-77
2022/11/30 11:23:21;;;;;;;1.60;1.20;;;7.60;98.20;;;;;;4946301;28;20489;-80
2022/11/30 11:25:52;;;;;;;1.60;1.20;;;7.70;98.20;;;;;;4959130;28;20468;-80
2022/11/30 11:28:20;;;;;;;1.70;1.20;;;7.70;98.20;;;;;;4963057;28;20519;-78
2022/11/30 11:30:48;;;;;;;1.60;1.20;;;7.70;98.20;;;;;;4945566;28;20491;-78
2022/11/30 11:33:21;;;;;;;1.67;1.30;;;7.70;98.20;;;;;;4964951;28;21015;-78
2022/11/30 11:35:49;;;;;;;1.63;1.20;;;7.70;98.20;;;;;;4945244;28;20478;-76
2022/11/30 11:38:26;;;;;;;1.70;1.50;;;7.70;98.20;;;;;;4965810;28;20481;-78
2022/11/30 11:40:59;;;;;;;1.63;1.30;;;7.70;98.20;;;;;;4955494;28;20497;-78
2022/11/30 11:43:29;;;;;;;1.80;1.60;;;7.70;98.20;;;;;;4961968;28;20861;-79
2022/11/30 11:45:59;;;;;;;1.60;1.30;;;7.70;98.20;;;;;;4949561;28;21066;-78
2022/11/30 11:48:39;;;;;;;1.60;1.20;;;7.70;98.20;;;;;;4964259;28;20477;-77
2022/11/30 11:51:07;;;;;;;1.80;1.50;;;7.70;98.20;;;;;;4941844;28;20478;-78
2022/11/30 11:53:48;;;;;;;1.63;1.30;;;7.70;98.20;;;;;;4954476;28;20463;-79
2022/11/30 11:56:20;;;;;;;1.63;1.23;;;7.70;98.20;;;;;;4941501;28;20469;-78
2022/11/30 11:58:52;;;;;;;2.67;2.47;;;7.70;98.20;;;;;;4948982;28;20976;-79
2022/11/30 12:01:39;;;;;;;1.60;1.20;;;7.70;98.20;;;;;;4943952;28;21050;-79
2022/11/30 12:04:19;;;;;;;1.70;1.30;;;7.70;98.20;;;;;;4951506;28;20471;-78
2022/11/30 12:06:48;;;;;;;1.70;1.50;;;7.80;98.20;;;;;;4961221;28;20849;-79
2022/11/30 12:09:22;;;;;;;1.60;1.20;;;7.80;98.20;;;;;;4968536;28;20492;-79
2022/11/30 12:11:49;;;;;;;1.60;1.20;;;7.80;98.20;;;;;;4949964;28;20810;-79
2022/11/30 12:14:17;;;;;;;1.67;1.30;;;7.80;98.20;;;;;;4963721;28;20462;-79
2022/11/30 12:17:00;;;;;;;2.87;1.87;;;7.80;98.20;;;;;;4963669;28;20485;-80
2022/11/30 12:19:36;;;;;;;1.70;1.30;;;7.70;98.20;;;;;;4959359;28;20562;-78
2022/11/30 12:22:14;;;;;;;2.37;2.17;;;7.70;98.20;;;;;;4950215;28;20537;-79
2022/11/30 12:24:54;;;;;;;1.60;1.20;;;7.70;98.20;;;;;;4956832;28;20909;-79
2022/11/30 12:27:27;;;;;;;1.63;1.30;;;7.70;98.20;;;;;;4946215;28;20481;-79
2022/11/30 12:30:05;;;;;;;2.07;1.87;;;7.70;98.20;;;;;;4952759;28;20466;-80
2022/11/30 12:32:47;;;;;;;1.60;1.20;;;7.70;98.20;;;;;;4944315;28;20510;-79
2022/11/30 12:35:25;;;;;;;1.60;1.20;;;7.70;98.20;;;;;;4946141;28;20762;-79
2022/11/30 12:38:01;;;;;;;1.70;1.40;;;7.70;98.20;;;;;;4949795;28;20872;-79
2022/11/30 12:40:42;;;;;;;1.60;1.20;;;7.70;98.20;;;;;;4950362;28;20497;-79
2022/11/30 12:43:19;;;;;;;1.63;1.30;;;7.70;98.20;;;;;;4952552;28;20486;-79
2022/11/30 12:45:48;;;;;;;1.67;1.30;;;7.70;98.20;;;;;;4954533;28;21312;-80
2022/11/30 12:48:29;;;;;;;1.60;1.20;;;7.70;98.20;;;;;;4941469;28;20565;-79
2022/11/30 12:51:05;;;;;;;2.17;1.97;;;7.70;98.20;;;;;;4941356;28;20491;-81
2022/11/30 12:53:37;;;;;;;1.60;1.20;;;7.70;98.20;;;;;;4955922;28;20462;-80
2022/11/30 12:56:17;;;;;;;1.60;1.30;;;7.80;98.20;;;;;;4942292;28;20537;-78
2022/11/30 12:58:51;;;;;;;1.60;1.20;;;7.80;98.20;;;;;;4954503;28;20522;-79
2022/11/30 13:01:34;;;;;;;1.63;1.30;;;7.70;98.20;;;;;;4943928;28;20474;-79
2022/11/30 13:04:07;;;;;;;1.67;1.27;;;7.70;98.20;;;;;;4953688;28;20928;-79
2022/11/30 13:06:39;;;;;;;1.60;1.20;;;7.80;98.20;;;;;;4945187;28;20485;-80
2022/11/30 13:09:12;;;;;;;1.70;1.30;;;7.80;98.20;;;;;;4962599;28;21106;-80
2022/11/30 13:11:45;;;;;;;1.60;1.23;;;7.80;98.20;;;;;;4946037;28;20565;-82
2022/11/30 13:14:15;;;;;;;1.60;1.20;;;7.80;98.20;;;;;;4962952;28;20476;-83
2022/11/30 13:16:43;;;;;;;1.60;1.20;;;7.80;98.20;;;;;;4956415;28;20477;-81
2022/11/30 13:19:22;;;;;;;1.60;1.20;;;7.90;98.20;;;;;;4961720;28;20465;-80